sensor_id;sensor_type;location;lat;lon;timestamp;pressure;altitude;pressure_sealevel;temperature;humidity
62655;BME280;48717;55.556;37.816;2023-05-23T00:01:54;99794.47;;;13.86;70.43
62655;BME280;48717;55.556;37.816;2023-05-23T00:04:24;99793.56;;;13.89;71.50
62655;BME280;48717;55.556;37.816;2023-05-23T00:06:53;99768.94;;;13.80;71.11
62655;BME280;48717;55.556;37.816;2023-05-23T00:09:20;99784.75;;;13.87;71.89
62655;BME280;48717;55.556;37.816;2023-05-23T00:11:47;99781.22;;;13.88;70.72
62655;BME280;48717;55.556;37.816;2023-05-23T00:14:15;99793.59;;;13.86;71.32
62655;BME280;48717;55.556;37.816;2023-05-23T00:16:43;99790.09;;;13.83;72.17
62655;BME280;48717;55.556;37.816;2023-05-23T00:19:11;99796.34;;;13.79;71.25
62655;BME280;48717;55.556;37.816;2023-05-23T00:21:42;99783.97;;;13.80;70.66
62655;BME280;48717;55.556;37.816;2023-05-23T00:24:14;99787.59;;;13.73;69.63
62655;BME280;48717;55.556;37.816;2023-05-23T00:26:45;99783.09;;;13.78;70.18
62655;BME280;48717;55.556;37.816;2023-05-23T00:29:14;99791.94;;;13.78;70.81
62655;BME280;48717;55.556;37.816;2023-05-23T00:31:45;99793.69;;;13.79;71.63
62655;BME280;48717;55.556;37.816;2023-05-23T00:34:14;99787.59;;;13.74;72.36
62655;BME280;48717;55.556;37.816;2023-05-23T00:36:44;99785.06;;;13.65;72.62
62655;BME280;48717;55.556;37.816;2023-05-23T00:39:16;99767.63;;;13.45;73.59
62655;BME280;48717;55.556;37.816;2023-05-23T00:41:50;99784.31;;;13.55;73.72
62655;BME280;48717;55.556;37.816;2023-05-23T00:44:19;99794.09;;;13.51;74.06
62655;BME280;48717;55.556;37.816;2023-05-23T00:46:51;99792.34;;;13.47;74.78
62655;BME280;48717;55.556;37.816;2023-05-23T00:49:20;99780.16;;;13.34;75.04
62655;BME280;48717;55.556;37.816;2023-05-23T00:51:49;99794.25;;;13.36;74.97
62655;BME280;48717;55.556;37.816;2023-05-23T00:54:21;99774.88;;;13.34;74.48
62655;BME280;48717;55.556;37.816;2023-05-23T00:56:50;99783.75;;;13.29;74.09
62655;BME280;48717;55.556;37.816;2023-05-23T00:59:17;99781.94;;;13.31;74.52
62655;BME280;48717;55.556;37.816;2023-05-23T01:01:48;99785.50;;;13.30;73.84
62655;BME280;48717;55.556;37.816;2023-05-23T01:04:16;99768.78;;;13.27;73.98
62655;BME280;48717;55.556;37.816;2023-05-23T01:06:44;99775.81;;;13.28;74.06
62655;BME280;48717;55.556;37.816;2023-05-23T01:09:14;99781.94;;;13.31;74.44
62655;BME280;48717;55.556;37.816;2023-05-23T01:11:54;99799.63;;;13.29;73.94
62655;BME280;48717;55.556;37.816;2023-05-23T01:14:46;99789.06;;;13.26;74.29
62655;BME280;48717;55.556;37.816;2023-05-23T01:17:19;99777.69;;;13.19;73.75
62655;BME280;48717;55.556;37.816;2023-05-23T01:19:58;99773.38;;;13.11;74.28
62655;BME280;48717;55.556;37.816;2023-05-23T01:28:04;99784.81;;;13.14;74.09
62655;BME280;48717;55.556;37.816;2023-05-23T01:30:38;99780.44;;;13.12;73.92
62655;BME280;48717;55.556;37.816;2023-05-23T01:33:07;99791.03;;;13.12;74.26
62655;BME280;48717;55.556;37.816;2023-05-23T01:35:35;99766.34;;;13.06;73.98
62655;BME280;48717;55.556;37.816;2023-05-23T01:38:03;99779.53;;;13.11;73.91
62655;BME280;48717;55.556;37.816;2023-05-23T01:40:30;99776.91;;;13.10;73.37
62655;BME280;48717;55.556;37.816;2023-05-23T01:42:57;99770.66;;;13.17;73.32
62655;BME280;48717;55.556;37.816;2023-05-23T01:45:27;99751.38;;;13.04;73.37
62655;BME280;48717;55.556;37.816;2023-05-23T01:47:55;99762.78;;;13.11;72.85
62655;BME280;48717;55.556;37.816;2023-05-23T01:50:24;99752.13;;;13.17;72.99
62655;BME280;48717;55.556;37.816;2023-05-23T01:52:54;99782.06;;;13.22;72.80
62655;BME280;48717;55.556;37.816;2023-05-23T01:55:22;99785.63;;;13.21;71.91
62655;BME280;48717;55.556;37.816;2023-05-23T01:57:56;99781.16;;;13.25;71.33
62655;BME280;48717;55.556;37.816;2023-05-23T02:00:23;99760.91;;;13.19;70.59
62655;BME280;48717;55.556;37.816;2023-05-23T02:02:51;99757.41;;;13.17;70.61
62655;BME280;48717;55.556;37.816;2023-05-23T02:05:18;99748.66;;;13.12;70.23
62655;BME280;48717;55.556;37.816;2023-05-23T02:07:45;99773.19;;;13.25;70.53
62655;BME280;48717;55.556;37.816;2023-05-23T02:10:16;99769.72;;;13.21;70.10
62655;BME280;48717;55.556;37.816;2023-05-23T02:12:43;99774.97;;;13.24;70.32
62655;BME280;48717;55.556;37.816;2023-05-23T02:15:10;99773.28;;;13.20;70.55
62655;BME280;48717;55.556;37.816;2023-05-23T02:17:38;99763.53;;;13.21;70.66
62655;BME280;48717;55.556;37.816;2023-05-23T02:20:06;99780.31;;;13.21;70.57
62655;BME280;48717;55.556;37.816;2023-05-23T02:22:34;99774.09;;;13.24;70.21
62655;BME280;48717;55.556;37.816;2023-05-23T02:25:02;99767.09;;;13.21;70.00
62655;BME280;48717;55.556;37.816;2023-05-23T02:27:30;99767.91;;;13.25;69.45
62655;BME280;48717;55.556;37.816;2023-05-23T02:29:57;99769.66;;;13.24;70.19
62655;BME280;48717;55.556;37.816;2023-05-23T02:32:24;99761.00;;;13.13;68.89
62655;BME280;48717;55.556;37.816;2023-05-23T02:34:52;99772.28;;;13.29;68.84
62655;BME280;48717;55.556;37.816;2023-05-23T02:37:22;99767.06;;;13.23;68.31
62655;BME280;48717;55.556;37.816;2023-05-23T02:39:49;99776.66;;;13.31;68.22
62655;BME280;48717;55.556;37.816;2023-05-23T02:42:16;99783.63;;;13.39;68.33
62655;BME280;48717;55.556;37.816;2023-05-23T02:44:44;99785.38;;;13.40;67.67
62655;BME280;48717;55.556;37.816;2023-05-23T02:47:11;99776.50;;;13.42;67.57
62655;BME280;48717;55.556;37.816;2023-05-23T02:49:38;99780.09;;;13.38;67.20
62655;BME280;48717;55.556;37.816;2023-05-23T02:52:05;99785.28;;;13.49;66.90
62655;BME280;48717;55.556;37.816;2023-05-23T02:54:33;99779.91;;;13.55;66.66
62655;BME280;48717;55.556;37.816;2023-05-23T02:57:00;99779.81;;;13.60;65.64
62655;BME280;48717;55.556;37.816;2023-05-23T02:59:32;99778.88;;;13.66;65.15
62655;BME280;48717;55.556;37.816;2023-05-23T03:01:59;99739.34;;;13.50;64.16
62655;BME280;48717;55.556;37.816;2023-05-23T03:04:27;99763.81;;;13.68;63.94
62655;BME280;48717;55.556;37.816;2023-05-23T03:06:55;99733.88;;;13.63;64.45
62655;BME280;48717;55.556;37.816;2023-05-23T03:09:22;99772.28;;;13.93;64.18
62655;BME280;48717;55.556;37.816;2023-05-23T03:11:49;99775.72;;;14.00;62.95
62655;BME280;48717;55.556;37.816;2023-05-23T03:14:17;99781.84;;;14.04;63.87
62655;BME280;48717;55.556;37.816;2023-05-23T03:16:44;99763.41;;;13.96;63.05
62655;BME280;48717;55.556;37.816;2023-05-23T03:19:11;99746.44;;;14.08;63.74
62655;BME280;48717;55.556;37.816;2023-05-23T03:21:39;99765.59;;;14.24;62.87
62655;BME280;48717;55.556;37.816;2023-05-23T03:24:06;99776.94;;;14.32;62.97
62655;BME280;48717;55.556;37.816;2023-05-23T03:26:34;99769.78;;;14.38;62.28
62655;BME280;48717;55.556;37.816;2023-05-23T03:29:02;99729.28;;;14.28;61.98
62655;BME280;48717;55.556;37.816;2023-05-23T03:31:29;99762.41;;;14.55;61.52
62655;BME280;48717;55.556;37.816;2023-05-23T03:33:56;99757.94;;;14.57;61.45
62655;BME280;48717;55.556;37.816;2023-05-23T03:36:23;99770.16;;;14.66;60.95
62655;BME280;48717;55.556;37.816;2023-05-23T03:38:54;99758.56;;;14.72;60.53
62655;BME280;48717;55.556;37.816;2023-05-23T03:41:21;99756.81;;;14.71;60.98
62655;BME280;48717;55.556;37.816;2023-05-23T03:43:49;99771.75;;;14.78;61.03
62655;BME280;48717;55.556;37.816;2023-05-23T03:46:17;99770.97;;;14.70;61.96
62655;BME280;48717;55.556;37.816;2023-05-23T03:48:45;99753.53;;;14.56;62.34
62655;BME280;48717;55.556;37.816;2023-05-23T03:51:12;99762.34;;;14.60;61.98
62655;BME280;48717;55.556;37.816;2023-05-23T03:53:40;99774.66;;;14.62;61.58
62655;BME280;48717;55.556;37.816;2023-05-23T03:56:08;99765.84;;;14.60;61.55
62655;BME280;48717;55.556;37.816;2023-05-23T03:58:35;99760.44;;;14.67;61.44
62655;BME280;48717;55.556;37.816;2023-05-23T04:01:09;99765.75;;;14.67;61.78
62655;BME280;48717;55.556;37.816;2023-05-23T04:03:36;99760.47;;;14.64;61.26
62655;BME280;48717;55.556;37.816;2023-05-23T04:06:04;99769.28;;;14.66;61.40
62655;BME280;48717;55.556;37.816;2023-05-23T04:08:32;99764.03;;;14.62;60.71
62655;BME280;48717;55.556;37.816;2023-05-23T04:11:02;99756.88;;;14.68;60.66
62655;BME280;48717;55.556;37.816;2023-05-23T04:13:33;99756.75;;;14.74;61.73
62655;BME280;48717;55.556;37.816;2023-05-23T04:16:02;99766.41;;;14.80;61.22
62655;BME280;48717;55.556;37.816;2023-05-23T04:18:32;99767.34;;;14.77;60.96
62655;BME280;48717;55.556;37.816;2023-05-23T04:20:59;99762.13;;;14.71;61.86
62655;BME280;48717;55.556;37.816;2023-05-23T04:23:27;99773.56;;;14.74;62.14
62655;BME280;48717;55.556;37.816;2023-05-23T04:25:55;99766.53;;;14.72;62.22
62655;BME280;48717;55.556;37.816;2023-05-23T04:28:25;99766.56;;;14.70;63.29
62655;BME280;48717;55.556;37.816;2023-05-23T04:30:54;99764.84;;;14.66;63.53
62655;BME280;48717;55.556;37.816;2023-05-23T04:33:25;99769.19;;;14.72;63.71
62655;BME280;48717;55.556;37.816;2023-05-23T04:35:54;99767.44;;;14.71;63.73
62655;BME280;48717;55.556;37.816;2023-05-23T04:38:22;99759.38;;;14.75;63.85
62655;BME280;48717;55.556;37.816;2023-05-23T04:40:52;99763.75;;;14.80;63.31
62655;BME280;48717;55.556;37.816;2023-05-23T04:43:41;99751.38;;;14.80;63.76
62655;BME280;48717;55.556;37.816;2023-05-23T04:46:27;99761.81;;;14.90;63.29
62655;BME280;48717;55.556;37.816;2023-05-23T04:49:08;99768.06;;;14.85;63.41
62655;BME280;48717;55.556;37.816;2023-05-23T04:51:36;99765.38;;;14.88;62.56
62655;BME280;48717;55.556;37.816;2023-05-23T04:54:16;99792.00;;;14.82;65.23
62655;BME280;48717;55.556;37.816;2023-05-23T04:56:43;99786.75;;;14.79;64.71
62655;BME280;48717;55.556;37.816;2023-05-23T04:59:10;99801.06;;;14.69;66.50
62655;BME280;48717;55.556;37.816;2023-05-23T05:01:39;99789.69;;;14.62;66.58
62655;BME280;48717;55.556;37.816;2023-05-23T05:04:08;99786.16;;;14.61;67.76
62655;BME280;48717;55.556;37.816;2023-05-23T05:06:35;99758.97;;;14.50;67.74
62655;BME280;48717;55.556;37.816;2023-05-23T05:09:02;99792.16;;;14.73;67.50
62655;BME280;48717;55.556;37.816;2023-05-23T05:11:29;99781.44;;;14.79;67.69
62655;BME280;48717;55.556;37.816;2023-05-23T05:13:57;99797.13;;;14.92;67.48
62655;BME280;48717;55.556;37.816;2023-05-23T05:16:24;99788.34;;;14.90;66.58
62655;BME280;48717;55.556;37.816;2023-05-23T05:18:52;99782.91;;;14.96;66.88
62655;BME280;48717;55.556;37.816;2023-05-23T05:21:20;99782.91;;;14.96;67.44
62655;BME280;48717;55.556;37.816;2023-05-23T05:23:48;99780.09;;;15.04;67.64
62655;BME280;48717;55.556;37.816;2023-05-23T05:26:16;99779.84;;;15.16;66.97
62655;BME280;48717;55.556;37.816;2023-05-23T05:28:43;99776.34;;;15.16;66.97
62655;BME280;48717;55.556;37.816;2023-05-23T05:31:11;99788.47;;;15.27;66.41
62655;BME280;48717;55.556;37.816;2023-05-23T05:33:42;99737.69;;;15.00;66.65
62655;BME280;48717;55.556;37.816;2023-05-23T05:36:13;99784.09;;;15.25;66.37
62655;BME280;48717;55.556;37.816;2023-05-23T05:38:42;99783.97;;;15.31;66.75
62655;BME280;48717;55.556;37.816;2023-05-23T05:41:09;99783.97;;;15.31;66.37
62655;BME280;48717;55.556;37.816;2023-05-23T05:43:41;99761.22;;;15.18;65.99
62655;BME280;48717;55.556;37.816;2023-05-23T05:46:10;99734.88;;;15.07;65.72
62655;BME280;48717;55.556;37.816;2023-05-23T05:48:37;99736.56;;;15.12;65.56
62655;BME280;48717;55.556;37.816;2023-05-23T05:51:07;99782.03;;;15.39;64.86
62655;BME280;48717;55.556;37.816;2023-05-23T05:53:34;99776.72;;;15.39;65.85
62655;BME280;48717;55.556;37.816;2023-05-23T05:56:02;99787.19;;;15.46;65.99
62655;BME280;48717;55.556;37.816;2023-05-23T05:58:31;99749.44;;;15.31;65.83
62655;BME280;48717;55.556;37.816;2023-05-23T06:01:16;99765.44;;;15.68;65.28
62655;BME280;48717;55.556;37.816;2023-05-23T06:06:50;99773.34;;;16.10;63.20
62655;BME280;48717;55.556;37.816;2023-05-23T06:09:17;99743.13;;;16.14;62.68
62655;BME280;48717;55.556;37.816;2023-05-23T06:11:44;99767.19;;;16.44;62.24
62655;BME280;48717;55.556;37.816;2023-05-23T06:14:12;99755.19;;;16.61;61.39
62655;BME280;48717;55.556;37.816;2023-05-23T06:16:42;99762.69;;;16.80;60.74
62655;BME280;48717;55.556;37.816;2023-05-23T06:19:10;99758.44;;;17.06;60.68
62655;BME280;48717;55.556;37.816;2023-05-23T06:21:38;99745.13;;;17.36;59.70
62655;BME280;48717;55.556;37.816;2023-05-23T06:24:08;99735.06;;;17.74;58.63
62655;BME280;48717;55.556;37.816;2023-05-23T06:26:35;99734.06;;;18.06;57.34
62655;BME280;48717;55.556;37.816;2023-05-23T06:29:03;99736.25;;;18.21;56.84
62655;BME280;48717;55.556;37.816;2023-05-23T06:31:30;99726.91;;;18.35;56.13
62655;BME280;48717;55.556;37.816;2023-05-23T06:33:58;99724.00;;;18.41;55.42
62655;BME280;48717;55.556;37.816;2023-05-23T06:36:25;99729.25;;;18.44;55.19
62655;BME280;48717;55.556;37.816;2023-05-23T06:38:54;99721.72;;;18.56;55.07
62655;BME280;48717;55.556;37.816;2023-05-23T06:41:21;99723.13;;;18.66;56.04
62655;BME280;48717;55.556;37.816;2023-05-23T06:43:51;99720.81;;;18.81;55.55
62655;BME280;48717;55.556;37.816;2023-05-23T06:46:23;99689.53;;;18.84;54.76
62655;BME280;48717;55.556;37.816;2023-05-23T06:48:51;99690.41;;;19.09;54.43
62655;BME280;48717;55.556;37.816;2023-05-23T06:51:33;99687.38;;;19.18;53.58
62655;BME280;48717;55.556;37.816;2023-05-23T06:54:01;99700.06;;;19.37;53.55
62655;BME280;48717;55.556;37.816;2023-05-23T06:56:29;99681.34;;;19.37;53.27
62655;BME280;48717;55.556;37.816;2023-05-23T06:58:57;99707.19;;;19.59;53.41
62655;BME280;48717;55.556;37.816;2023-05-23T07:01:25;99699.44;;;19.75;52.77
62655;BME280;48717;55.556;37.816;2023-05-23T07:03:53;99706.69;;;19.93;52.51
62655;BME280;48717;55.556;37.816;2023-05-23T07:06:20;99703.84;;;19.98;52.09
62655;BME280;48717;55.556;37.816;2023-05-23T07:08:49;99685.66;;;20.06;51.39
62655;BME280;48717;55.556;37.816;2023-05-23T07:11:17;99692.56;;;20.33;51.13
62655;BME280;48717;55.556;37.816;2023-05-23T07:13:50;99704.06;;;20.77;50.37
62655;BME280;48717;55.556;37.816;2023-05-23T07:16:26;99697.94;;;20.94;49.39
62655;BME280;48717;55.556;37.816;2023-05-23T07:19:01;99698.69;;;21.17;48.53
62655;BME280;48717;55.556;37.816;2023-05-23T07:21:30;99682.78;;;21.31;48.26
62655;BME280;48717;55.556;37.816;2023-05-23T07:23:57;99680.97;;;21.51;49.04
62655;BME280;48717;55.556;37.816;2023-05-23T07:26:26;99700.34;;;21.95;48.16
62655;BME280;48717;55.556;37.816;2023-05-23T07:28:55;99702.06;;;22.31;46.67
62655;BME280;48717;55.556;37.816;2023-05-23T07:31:22;99680.53;;;22.33;46.00
62655;BME280;48717;55.556;37.816;2023-05-23T07:33:52;99676.84;;;22.51;45.90
62655;BME280;48717;55.556;37.816;2023-05-23T07:36:31;99697.66;;;22.65;44.80
62655;BME280;48717;55.556;37.816;2023-05-23T07:39:02;99711.81;;;22.85;44.00
62655;BME280;48717;55.556;37.816;2023-05-23T07:41:30;99686.78;;;22.67;44.37
62655;BME280;48717;55.556;37.816;2023-05-23T07:43:57;99696.28;;;22.74;45.68
62655;BME280;48717;55.556;37.816;2023-05-23T07:46:24;99682.66;;;22.43;44.84
62655;BME280;48717;55.556;37.816;2023-05-23T07:48:51;99716.47;;;22.65;45.19
62655;BME280;48717;55.556;37.816;2023-05-23T07:51:18;99711.22;;;22.80;44.82
62655;BME280;48717;55.556;37.816;2023-05-23T07:53:49;99711.00;;;23.01;44.61
62655;BME280;48717;55.556;37.816;2023-05-23T07:56:19;99712.31;;;23.10;44.00
62655;BME280;48717;55.556;37.816;2023-05-23T07:58:46;99695.22;;;23.27;43.32
62655;BME280;48717;55.556;37.816;2023-05-23T08:01:14;99690.31;;;23.35;43.36
62655;BME280;48717;55.556;37.816;2023-05-23T08:04:02;99707.75;;;23.44;43.72
62655;BME280;48717;55.556;37.816;2023-05-23T08:06:45;99711.94;;;23.50;43.21
62655;BME280;48717;55.556;37.816;2023-05-23T08:09:50;99715.56;;;23.49;44.20
62655;BME280;48717;55.556;37.816;2023-05-23T08:12:19;99688.22;;;22.74;44.51
62655;BME280;48717;55.556;37.816;2023-05-23T08:14:50;99714.22;;;22.38;46.45
62655;BME280;48717;55.556;37.816;2023-05-23T08:17:32;99712.47;;;21.84;47.17
62655;BME280;48717;55.556;37.816;2023-05-23T08:20:00;99701.34;;;21.36;49.26
62655;BME280;48717;55.556;37.816;2023-05-23T08:22:30;99721.72;;;21.21;51.20
62655;BME280;48717;55.556;37.816;2023-05-23T08:24:58;99715.91;;;21.11;51.13
62655;BME280;48717;55.556;37.816;2023-05-23T08:27:30;99720.97;;;20.98;51.43
62655;BME280;48717;55.556;37.816;2023-05-23T08:30:04;99712.63;;;20.64;52.21
62655;BME280;48717;55.556;37.816;2023-05-23T08:32:33;99715.78;;;20.32;53.71
62655;BME280;48717;55.556;37.816;2023-05-23T08:35:00;99719.13;;;20.17;54.35
62655;BME280;48717;55.556;37.816;2023-05-23T08:37:30;99714.97;;;20.09;55.40
62655;BME280;48717;55.556;37.816;2023-05-23T08:39:57;99710.41;;;20.12;55.75
62655;BME280;48717;55.556;37.816;2023-05-23T08:42:44;99688.41;;;19.82;56.02
62655;BME280;48717;55.556;37.816;2023-05-23T08:45:13;99718.22;;;19.73;57.02
62655;BME280;48717;55.556;37.816;2023-05-23T08:47:42;99717.34;;;19.50;57.89
62655;BME280;48717;55.556;37.816;2023-05-23T08:50:15;99696.44;;;19.14;58.86
62655;BME280;48717;55.556;37.816;2023-05-23T08:52:54;99730.16;;;19.18;59.26
62655;BME280;48717;55.556;37.816;2023-05-23T08:55:27;99714.25;;;18.89;60.01
62655;BME280;48717;55.556;37.816;2023-05-23T08:57:57;99724.59;;;18.75;62.03
62655;BME280;48717;55.556;37.816;2023-05-23T09:00:50;99742.53;;;18.71;62.84
62655;BME280;48717;55.556;37.816;2023-05-23T09:03:20;99721.09;;;18.47;64.39
62655;BME280;48717;55.556;37.816;2023-05-23T09:06:13;99745.34;;;18.41;64.35
62655;BME280;48717;55.556;37.816;2023-05-23T09:08:42;99743.72;;;18.37;65.80
62655;BME280;48717;55.556;37.816;2023-05-23T09:11:13;99751.88;;;18.32;66.62
62655;BME280;48717;55.556;37.816;2023-05-23T09:13:42;99753.88;;;18.25;66.72
62655;BME280;48717;55.556;37.816;2023-05-23T09:16:15;99735.38;;;18.21;66.56
62655;BME280;48717;55.556;37.816;2023-05-23T09:18:55;99721.56;;;18.08;67.22
62655;BME280;48717;55.556;37.816;2023-05-23T09:21:24;99750.00;;;18.09;66.50
62655;BME280;48717;55.556;37.816;2023-05-23T09:24:08;99736.31;;;17.91;67.58
62655;BME280;48717;55.556;37.816;2023-05-23T09:26:36;99745.44;;;17.84;67.82
62655;BME280;48717;55.556;37.816;2023-05-23T09:29:06;99738.44;;;17.80;67.83
62655;BME280;48717;55.556;37.816;2023-05-23T09:31:34;99737.00;;;17.69;68.52
62655;BME280;48717;55.556;37.816;2023-05-23T09:34:02;99747.38;;;17.79;68.53
62655;BME280;48717;55.556;37.816;2023-05-23T09:36:32;99750.34;;;17.69;69.88
62655;BME280;48717;55.556;37.816;2023-05-23T09:39:03;99740.25;;;17.51;70.10
62655;BME280;48717;55.556;37.816;2023-05-23T09:41:34;99748.94;;;17.57;70.63
62655;BME280;48717;55.556;37.816;2023-05-23T09:44:07;99747.41;;;17.48;70.55
62655;BME280;48717;55.556;37.816;2023-05-23T09:46:36;99733.50;;;17.39;71.27
62655;BME280;48717;55.556;37.816;2023-05-23T09:49:16;99744.59;;;17.55;72.09
62655;BME280;48717;55.556;37.816;2023-05-23T09:51:58;99732.78;;;17.62;71.86
62655;BME280;48717;55.556;37.816;2023-05-23T09:54:26;99754.50;;;18.05;71.41
62655;BME280;48717;55.556;37.816;2023-05-23T09:56:53;99743.50;;;18.16;70.31
62655;BME280;48717;55.556;37.816;2023-05-23T09:59:27;99733.78;;;18.15;70.81
62655;BME280;48717;55.556;37.816;2023-05-23T10:01:56;99750.06;;;18.06;71.71
62655;BME280;48717;55.556;37.816;2023-05-23T10:04:24;99749.34;;;18.00;72.23
62655;BME280;48717;55.556;37.816;2023-05-23T10:07:01;99755.03;;;17.90;73.37
62655;BME280;48717;55.556;37.816;2023-05-23T10:09:32;99742.19;;;17.74;74.54
62655;BME280;48717;55.556;37.816;2023-05-23T10:14:54;99755.13;;;17.58;76.69
62655;BME280;48717;55.556;37.816;2023-05-23T10:17:38;99752.47;;;17.58;77.71
62655;BME280;48717;55.556;37.816;2023-05-23T10:20:14;99746.41;;;17.53;77.16
62655;BME280;48717;55.556;37.816;2023-05-23T10:22:42;99748.25;;;17.51;77.79
62655;BME280;48717;55.556;37.816;2023-05-23T10:25:10;99753.59;;;17.51;78.97
62655;BME280;48717;55.556;37.816;2023-05-23T10:27:38;99757.78;;;17.58;78.68
62655;BME280;48717;55.556;37.816;2023-05-23T10:30:08;99760.16;;;17.67;78.85
62655;BME280;48717;55.556;37.816;2023-05-23T10:32:37;99751.44;;;17.62;79.46
62655;BME280;48717;55.556;37.816;2023-05-23T10:40:57;99763.38;;;17.20;82.93
62655;BME280;48717;55.556;37.816;2023-05-23T10:43:42;99756.94;;;16.95;83.37
62655;BME280;48717;55.556;37.816;2023-05-23T10:46:14;99759.66;;;16.92;84.83
62655;BME280;48717;55.556;37.816;2023-05-23T10:48:43;99774.13;;;16.83;85.56
62655;BME280;48717;55.556;37.816;2023-05-23T10:51:12;99742.50;;;16.71;85.82
62655;BME280;48717;55.556;37.816;2023-05-23T10:53:44;99767.13;;;16.79;86.02
62655;BME280;48717;55.556;37.816;2023-05-23T10:56:20;99764.50;;;16.78;86.36
62655;BME280;48717;55.556;37.816;2023-05-23T10:58:53;99745.41;;;16.63;87.41
62655;BME280;48717;55.556;37.816;2023-05-23T11:01:21;99766.19;;;16.82;87.09
62655;BME280;48717;55.556;37.816;2023-05-23T11:03:52;99772.19;;;16.89;86.30
62655;BME280;48717;55.556;37.816;2023-05-23T11:06:39;99767.59;;;16.95;85.89
62655;BME280;48717;55.556;37.816;2023-05-23T11:17:13;99738.06;;;17.03;85.30
62655;BME280;48717;55.556;37.816;2023-05-23T11:20:03;99765.38;;;17.42;84.52
62655;BME280;48717;55.556;37.816;2023-05-23T11:22:35;99752.47;;;17.58;84.39
62655;BME280;48717;55.556;37.816;2023-05-23T11:25:09;99743.09;;;17.73;82.66
62655;BME280;48717;55.556;37.816;2023-05-23T11:27:39;99745.44;;;17.84;81.91
62655;BME280;48717;55.556;37.816;2023-05-23T11:30:14;99760.94;;;17.99;80.50
62655;BME280;48717;55.556;37.816;2023-05-23T11:32:53;99742.00;;;18.07;79.68
62655;BME280;48717;55.556;37.816;2023-05-23T11:35:21;99750.63;;;18.17;79.08
62655;BME280;48717;55.556;37.816;2023-05-23T11:37:49;99742.63;;;18.17;78.75
62655;BME280;48717;55.556;37.816;2023-05-23T11:43:00;99731.06;;;18.42;78.96
62655;BME280;48717;55.556;37.816;2023-05-23T11:45:29;99734.13;;;18.57;76.90
62655;BME280;48717;55.556;37.816;2023-05-23T11:47:58;99720.56;;;18.63;76.53
62655;BME280;48717;55.556;37.816;2023-05-23T11:50:25;99721.97;;;18.73;77.02
62655;BME280;48717;55.556;37.816;2023-05-23T11:52:54;99722.34;;;18.88;75.84
62655;BME280;48717;55.556;37.816;2023-05-23T11:55:21;99723.84;;;18.95;75.24
62655;BME280;48717;55.556;37.816;2023-05-23T11:57:49;99716.66;;;18.97;74.34
62655;BME280;48717;55.556;37.816;2023-05-23T12:00:18;99714.69;;;19.02;74.30
62655;BME280;48717;55.556;37.816;2023-05-23T12:02:45;99695.78;;;18.83;75.50
62655;BME280;48717;55.556;37.816;2023-05-23T12:05:16;99700.84;;;18.91;75.10
62655;BME280;48717;55.556;37.816;2023-05-23T12:07:47;99688.44;;;18.90;75.19
62655;BME280;48717;55.556;37.816;2023-05-23T12:10:15;99679.81;;;18.82;74.97
62655;BME280;48717;55.556;37.816;2023-05-23T12:12:43;99691.00;;;18.93;74.47
62655;BME280;48717;55.556;37.816;2023-05-23T12:15:11;99661.72;;;18.90;73.81
62655;BME280;48717;55.556;37.816;2023-05-23T12:17:43;99674.97;;;19.17;73.04
62655;BME280;48717;55.556;37.816;2023-05-23T12:20:13;99672.13;;;19.44;71.79
62655;BME280;48717;55.556;37.816;2023-05-23T12:22:41;99688.78;;;19.73;71.29
62655;BME280;48717;55.556;37.816;2023-05-23T12:25:09;99664.66;;;19.75;70.05
62655;BME280;48717;55.556;37.816;2023-05-23T12:27:40;99672.25;;;19.63;69.88
62655;BME280;48717;55.556;37.816;2023-05-23T12:30:13;99674.19;;;19.60;70.25
62655;BME280;48717;55.556;37.816;2023-05-23T12:32:41;99675.09;;;19.59;70.85
62655;BME280;48717;55.556;37.816;2023-05-23T12:35:10;99669.75;;;19.59;70.21
62655;BME280;48717;55.556;37.816;2023-05-23T12:37:45;99673.13;;;19.64;70.39
62655;BME280;48717;55.556;37.816;2023-05-23T12:40:16;99682.69;;;19.69;71.00
62655;BME280;48717;55.556;37.816;2023-05-23T12:45:17;99674.94;;;20.06;68.51
62655;BME280;48717;55.556;37.816;2023-05-23T12:47:44;99684.31;;;20.38;67.82
62655;BME280;48717;55.556;37.816;2023-05-23T12:50:11;99678.00;;;20.59;66.75
62655;BME280;48717;55.556;37.816;2023-05-23T12:52:39;99680.34;;;20.67;65.94
62655;BME280;48717;55.556;37.816;2023-05-23T12:55:07;99656.00;;;20.53;66.73
62655;BME280;48717;55.556;37.816;2023-05-23T12:57:34;99672.13;;;20.51;67.01
62655;BME280;48717;55.556;37.816;2023-05-23T13:00:02;99661.16;;;20.37;67.16
62655;BME280;48717;55.556;37.816;2023-05-23T13:02:34;99665.44;;;20.20;66.96
62655;BME280;48717;55.556;37.816;2023-05-23T13:05:02;99668.47;;;20.12;67.18
62655;BME280;48717;55.556;37.816;2023-05-23T13:07:30;99663.00;;;19.93;67.45
62655;BME280;48717;55.556;37.816;2023-05-23T13:09:57;99636.53;;;19.64;67.89
62655;BME280;48717;55.556;37.816;2023-05-23T13:12:24;99662.34;;;19.88;68.56
62655;BME280;48717;55.556;37.816;2023-05-23T13:14:51;99663.88;;;19.93;68.19
62655;BME280;48717;55.556;37.816;2023-05-23T13:17:19;99640.38;;;19.79;67.74
62655;BME280;48717;55.556;37.816;2023-05-23T13:19:46;99661.03;;;19.98;67.91
62655;BME280;48717;55.556;37.816;2023-05-23T13:22:13;99669.88;;;20.00;66.92
62655;BME280;48717;55.556;37.816;2023-05-23T13:24:40;99674.22;;;20.03;67.29
62655;BME280;48717;55.556;37.816;2023-05-23T13:27:09;99661.56;;;20.06;66.98
62655;BME280;48717;55.556;37.816;2023-05-23T13:29:36;99667.06;;;20.24;66.70
62655;BME280;48717;55.556;37.816;2023-05-23T13:32:03;99672.81;;;20.35;65.84
62655;BME280;48717;55.556;37.816;2023-05-23T13:34:31;99674.81;;;20.51;65.16
62655;BME280;48717;55.556;37.816;2023-05-23T13:37:01;99679.75;;;20.60;64.86